Hansa Flensburg — A8AL3 — position and weather

sailwx.info

Track history (hours):
 
Tides and Currents Weather Stations Pressure Air Temp Water Temp Dewpoint Dewpoint Depression Visibility Wind Speed Wind Dir Waves Ship Positions

Hansa Flensburg

Last reported at 2017-Oct-17 23:53 UTC. Time now 2017-Oct-20 05:19 UTC.
Position N 40°03' E 023°09'.

Length 175 m; beam 27 m; draft 10 m.

Type: Ship (hazmat cat A). MMSI: 636090566.

Date/timePositionNaut miles runAvg speedWind from/ knotsBaromVisibWave heightAir tempDewpointWater temp
2017-Oct-17 23:53N 40°03' E 023°09'817.6
2017-Oct-17 23:26N 39°57' E 023°16'1717.0
2017-Oct-17 22:25N 39°48' E 023°35'917.7
2017-Oct-17 21:54N 39°44' E 023°46'717.2
2017-Oct-17 21:30N 39°43' E 023°55'917.1
2017-Oct-17 21:00N 39°43' E 024°06'917.4
2017-Oct-17 20:30N 39°43' E 024°18'917.6
2017-Oct-17 20:00N 39°43' E 024°29'917.8
2017-Oct-17 19:31N 39°43' E 024°40'917.8
2017-Oct-17 19:01N 39°43' E 024°52'918.2
2017-Oct-17 18:30N 39°43' E 025°04'2417.9
2017-Oct-17 17:10N 39°49' E 025°34'419.1
2017-Oct-17 16:57N 39°51' E 025°38'919.1
2017-Oct-17 16:30N 39°55' E 025°48'918.9
2017-Oct-17 16:00N 40°00' E 025°58'917.6
2017-Oct-17 15:30N 40°02' E 026°10'13013.1
2017-Oct-17 05:34N 40°26' E 028°57'212.2
2017-Oct-17 05:25N 40°26' E 028°59'410.2
2017-Oct-17 05:00N 40°25' E 029°05'0 0.0
2017-Oct-16 14:05N 40°25' E 029°05'38 2.3
2017-Oct-15 21:42N 40°58' E 028°41'1 4.2
2017-Oct-15 21:30N 40°57' E 028°41'3 2.0
2017-Oct-15 20:07N 40°55' E 028°38'0 0.2
2017-Oct-15 19:50N 40°55' E 028°38'0 0.2
2017-Oct-15 19:20N 40°55' E 028°38'10 7.3
2017-Oct-15 17:57N 40°53' E 028°24'28813.8
2017-Oct-14 21:07N 37°36' E 023°52'215.3
2017-Oct-14 21:00N 37°37' E 023°50'714.5
2017-Oct-14 20:30N 37°40' E 023°42'815.7
2017-Oct-14 20:00N 37°47' E 023°38'815.1
2017-Oct-14 19:30N 37°54' E 023°37'3 6.1
2017-Oct-14 19:00N 37°57' E 023°35'0 0.2
2017-Oct-14 18:29N 37°57' E 023°35'0 0.0
2017-Oct-14 17:59N 37°57' E 023°35'0 0.0
2017-Oct-14 17:29N 37°57' E 023°35'0 0.0
2017-Oct-14 16:59N 37°57' E 023°35'0 0.0
2017-Oct-14 16:29N 37°57' E 023°35'0 0.0
2017-Oct-14 15:59N 37°57' E 023°35'0 0.0
2017-Oct-14 15:29N 37°57' E 023°35'0 0.0
2017-Oct-14 14:59N 37°57' E 023°35'0 0.0
2017-Oct-14 14:29N 37°57' E 023°35'0 0.0
2017-Oct-14 13:59N 37°57' E 023°35'0 0.0
2017-Oct-14 13:29N 37°57' E 023°35'0 0.0
2017-Oct-14 12:59N 37°57' E 023°35'0 0.0
2017-Oct-14 12:29N 37°57' E 023°35'0 0.0
2017-Oct-14 11:59N 37°57' E 023°35'0 0.0
2017-Oct-14 11:29N 37°57' E 023°35'0 0.0
2017-Oct-14 10:59N 37°57' E 023°35'0 0.0
2017-Oct-14 10:29N 37°57' E 023°35'0 0.0
2017-Oct-14 09:59N 37°57' E 023°35'0 0.0
2017-Oct-14 09:29N 37°57' E 023°35'0 0.0
2017-Oct-14 08:59N 37°57' E 023°35'0 0.0
2017-Oct-14 08:29N 37°57' E 023°35'0 0.0
2017-Oct-14 07:59N 37°57' E 023°35'0 0.0
2017-Oct-14 07:29N 37°57' E 023°35'0 0.0
2017-Oct-14 06:59N 37°57' E 023°35'0 0.0
2017-Oct-14 06:29N 37°57' E 023°35'0 0.0
2017-Oct-14 05:59N 37°57' E 023°35'0 0.0
2017-Oct-14 05:29N 37°57' E 023°35'0 0.0
2017-Oct-14 04:59N 37°57' E 023°35'0 0.0
2017-Oct-14 04:29N 37°57' E 023°35'0 0.0
2017-Oct-14 03:59N 37°57' E 023°35'0 0.0
2017-Oct-14 03:28N 37°57' E 023°35'0 0.0
2017-Oct-14 02:58N 37°57' E 023°35'0 0.0
2017-Oct-14 02:28N 37°57' E 023°35'0 0.0
2017-Oct-14 01:58N 37°57' E 023°35'0 0.0
2017-Oct-14 01:28N 37°57' E 023°35'0 0.0
2017-Oct-14 00:58N 37°57' E 023°35'0 0.0
2017-Oct-14 00:28N 37°57' E 023°35'0 0.0
2017-Oct-13 23:58N 37°57' E 023°35'0 0.0
2017-Oct-13 23:28N 37°57' E 023°35'0 0.0
2017-Oct-13 22:58N 37°57' E 023°35'0 0.0
2017-Oct-13 22:28N 37°57' E 023°35'0 0.0
2017-Oct-13 21:58N 37°57' E 023°35'0 0.0
2017-Oct-13 21:28N 37°57' E 023°35'0 0.0
2017-Oct-13 20:58N 37°57' E 023°35'0 0.0
2017-Oct-13 20:28N 37°57' E 023°35'0 0.0
2017-Oct-13 19:58N 37°57' E 023°35'0 0.0
2017-Oct-13 19:28N 37°57' E 023°35'0 0.0
2017-Oct-13 18:58N 37°57' E 023°35'0 0.0
2017-Oct-13 18:28N 37°57' E 023°35'0 0.0
2017-Oct-13 17:58N 37°57' E 023°35'0 0.0
2017-Oct-13 17:28N 37°57' E 023°35'0 0.0
2017-Oct-13 16:58N 37°57' E 023°35'0 0.0
2017-Oct-13 16:28N 37°57' E 023°35'0 0.0
2017-Oct-13 15:58N 37°57' E 023°35'0 0.0
2017-Oct-13 15:28N 37°57' E 023°35'0 0.0
2017-Oct-13 14:58N 37°57' E 023°35'0 0.0
2017-Oct-13 14:28N 37°57' E 023°35'0 0.0
2017-Oct-13 13:58N 37°57' E 023°35'0 0.0
2017-Oct-13 13:28N 37°57' E 023°35'0 0.0
2017-Oct-13 12:58N 37°57' E 023°35'0 0.0
2017-Oct-13 12:28N 37°57' E 023°35'0 0.2
2017-Oct-13 12:00N 37°57' E 023°35'2 4.3
2017-Oct-13 11:30N 37°55' E 023°35'1 2.8
2017-Oct-13 11:00N 37°54' E 023°36'3 5.6
2017-Oct-13 10:30N 37°52' E 023°38'714.0
2017-Oct-13 10:01N 37°45' E 023°42'816.4
2017-Oct-13 09:30N 37°38' E 023°48'916.9
2017-Oct-13 08:59N 37°36' E 023°59'816.8
2017-Oct-13 08:30N 37°37' E 024°08'917.3
2017-Oct-13 07:58N 37°43' E 024°18'817.8
2017-Oct-13 07:30N 37°48' E 024°26'3617.5
2017-Oct-13 05:27N 38°22' E 024°42'7516.0
2017-Oct-13 00:47N 39°34' E 024°18'517.0
2017-Oct-13 00:28N 39°36' E 024°12'817.0
2017-Oct-13 00:00N 39°39' E 024°02'1716.9
2017-Oct-12 22:59N 39°46' E 023°42'1116.5
2017-Oct-12 22:21N 39°50' E 023°29'1317.1
2017-Oct-12 21:35N 39°55' E 023°14'517.3
2017-Oct-12 21:16N 39°58' E 023°07'6 0.1
2017-Oct-10 19:26N 40°03' E 023°09'3517.4
2017-Oct-10 17:24N 39°44' E 023°48'718.0
2017-Oct-10 17:00N 39°43' E 023°57'918.3
2017-Oct-10 16:31N 39°43' E 024°09'2118.2
2017-Oct-10 15:20N 39°43' E 024°37'617.8
2017-Oct-10 15:00N 39°43' E 024°44'1817.8
2017-Oct-10 13:59N 39°43' E 025°08'1817.7
2017-Oct-10 12:59N 39°46' E 025°31'16313.6
2017-Oct-10 01:01N 40°26' E 028°58'012.1
2017-Oct-10 00:59N 40°26' E 028°58'510.5
2017-Oct-10 00:31N 40°25' E 029°05'0 0.0
2017-Oct-09 11:06N 40°25' E 029°05'0 3.4
2017-Oct-09 11:00N 40°25' E 029°05'1 0.9
2017-Oct-09 09:52N 40°26' E 029°03'3610.2
2017-Oct-09 06:18N 40°58' E 028°41'0 0.0
2017-Oct-09 05:54N 40°58' E 028°41'0 0.0
2017-Oct-09 05:18N 40°58' E 028°41'0 0.0
2017-Oct-09 05:00N 40°58' E 028°41'0 0.0
2017-Oct-09 01:48N 40°58' E 028°41'0 0.0
2017-Oct-09 00:00N 40°58' E 028°41'0 0.0
2017-Oct-08 19:24N 40°58' E 028°41'0 0.0
2017-Oct-08 18:12N 40°58' E 028°41'0 0.0
2017-Oct-08 17:54N 40°58' E 028°41'0 0.0
2017-Oct-08 17:18N 40°58' E 028°41'0 0.0
2017-Oct-08 16:24N 40°58' E 028°41'0 0.0
2017-Oct-08 15:54N 40°58' E 028°41'0 0.0
2017-Oct-08 14:36N 40°58' E 028°41'0 0.0
2017-Oct-08 14:30N 40°58' E 028°41'  
Track history (hours):
 
Tides and Currents Weather Stations Pressure Air Temp Water Temp Dewpoint Dewpoint Depression Visibility Wind Speed Wind Dir Waves Ship Positions

Hansa Flensburg

Last reported at 2017-Oct-17 23:53 UTC. Time now 2017-Oct-20 05:19 UTC.
Position N 40°03' E 023°09'.

Length 175 m; beam 27 m; draft 10 m.

Type: Ship (hazmat cat A). MMSI: 636090566.

Date/timePositionNaut miles runAvg speedWind from/ knotsBaromVisibWave heightAir tempDewpointWater temp
2017-Oct-17 23:53N 40°03' E 023°09'817.6
2017-Oct-17 23:26N 39°57' E 023°16'1717.0
2017-Oct-17 22:25N 39°48' E 023°35'917.7
2017-Oct-17 21:54N 39°44' E 023°46'717.2
2017-Oct-17 21:30N 39°43' E 023°55'917.1
2017-Oct-17 21:00N 39°43' E 024°06'917.4
2017-Oct-17 20:30N 39°43' E 024°18'917.6
2017-Oct-17 20:00N 39°43' E 024°29'917.8
2017-Oct-17 19:31N 39°43' E 024°40'917.8
2017-Oct-17 19:01N 39°43' E 024°52'918.2
2017-Oct-17 18:30N 39°43' E 025°04'2417.9
2017-Oct-17 17:10N 39°49' E 025°34'419.1
2017-Oct-17 16:57N 39°51' E 025°38'919.1
2017-Oct-17 16:30N 39°55' E 025°48'918.9
2017-Oct-17 16:00N 40°00' E 025°58'917.6
2017-Oct-17 15:30N 40°02' E 026°10'13013.1
2017-Oct-17 05:34N 40°26' E 028°57'212.2
2017-Oct-17 05:25N 40°26' E 028°59'410.2
2017-Oct-17 05:00N 40°25' E 029°05'0 0.0
2017-Oct-16 14:05N 40°25' E 029°05'38 2.3
2017-Oct-15 21:42N 40°58' E 028°41'1 4.2
2017-Oct-15 21:30N 40°57' E 028°41'3 2.0
2017-Oct-15 20:07N 40°55' E 028°38'0 0.2
2017-Oct-15 19:50N 40°55' E 028°38'0 0.2
2017-Oct-15 19:20N 40°55' E 028°38'10 7.3
2017-Oct-15 17:57N 40°53' E 028°24'28813.8
2017-Oct-14 21:07N 37°36' E 023°52'215.3
2017-Oct-14 21:00N 37°37' E 023°50'714.5
2017-Oct-14 20:30N 37°40' E 023°42'815.7
2017-Oct-14 20:00N 37°47' E 023°38'815.1
2017-Oct-14 19:30N 37°54' E 023°37'3 6.1
2017-Oct-14 19:00N 37°57' E 023°35'0 0.2
2017-Oct-14 18:29N 37°57' E 023°35'0 0.0
2017-Oct-14 17:59N 37°57' E 023°35'0 0.0
2017-Oct-14 17:29N 37°57' E 023°35'0 0.0
2017-Oct-14 16:59N 37°57' E 023°35'0 0.0
2017-Oct-14 16:29N 37°57' E 023°35'0 0.0
2017-Oct-14 15:59N 37°57' E 023°35'0 0.0
2017-Oct-14 15:29N 37°57' E 023°35'0 0.0
2017-Oct-14 14:59N 37°57' E 023°35'0 0.0
2017-Oct-14 14:29N 37°57' E 023°35'0 0.0
2017-Oct-14 13:59N 37°57' E 023°35'0 0.0
2017-Oct-14 13:29N 37°57' E 023°35'0 0.0
2017-Oct-14 12:59N 37°57' E 023°35'0 0.0
2017-Oct-14 12:29N 37°57' E 023°35'0 0.0
2017-Oct-14 11:59N 37°57' E 023°35'0 0.0
2017-Oct-14 11:29N 37°57' E 023°35'0 0.0
2017-Oct-14 10:59N 37°57' E 023°35'0 0.0
2017-Oct-14 10:29N 37°57' E 023°35'0 0.0
2017-Oct-14 09:59N 37°57' E 023°35'0 0.0
2017-Oct-14 09:29N 37°57' E 023°35'0 0.0
2017-Oct-14 08:59N 37°57' E 023°35'0 0.0
2017-Oct-14 08:29N 37°57' E 023°35'0 0.0
2017-Oct-14 07:59N 37°57' E 023°35'0 0.0
2017-Oct-14 07:29N 37°57' E 023°35'0 0.0
2017-Oct-14 06:59N 37°57' E 023°35'0 0.0
2017-Oct-14 06:29N 37°57' E 023°35'0 0.0
2017-Oct-14 05:59N 37°57' E 023°35'0 0.0
2017-Oct-14 05:29N 37°57' E 023°35'0 0.0
2017-Oct-14 04:59N 37°57' E 023°35'0 0.0
2017-Oct-14 04:29N 37°57' E 023°35'0 0.0
2017-Oct-14 03:59N 37°57' E 023°35'0 0.0
2017-Oct-14 03:28N 37°57' E 023°35'0 0.0
2017-Oct-14 02:58N 37°57' E 023°35'0 0.0
2017-Oct-14 02:28N 37°57' E 023°35'0 0.0
2017-Oct-14 01:58N 37°57' E 023°35'0 0.0
2017-Oct-14 01:28N 37°57' E 023°35'0 0.0
2017-Oct-14 00:58N 37°57' E 023°35'0 0.0
2017-Oct-14 00:28N 37°57' E 023°35'0 0.0
2017-Oct-13 23:58N 37°57' E 023°35'0 0.0
2017-Oct-13 23:28N 37°57' E 023°35'0 0.0
2017-Oct-13 22:58N 37°57' E 023°35'0 0.0
2017-Oct-13 22:28N 37°57' E 023°35'0 0.0
2017-Oct-13 21:58N 37°57' E 023°35'0 0.0
2017-Oct-13 21:28N 37°57' E 023°35'0 0.0
2017-Oct-13 20:58N 37°57' E 023°35'0 0.0
2017-Oct-13 20:28N 37°57' E 023°35'0 0.0
2017-Oct-13 19:58N 37°57' E 023°35'0 0.0
2017-Oct-13 19:28N 37°57' E 023°35'0 0.0
2017-Oct-13 18:58N 37°57' E 023°35'0 0.0
2017-Oct-13 18:28N 37°57' E 023°35'0 0.0
2017-Oct-13 17:58N 37°57' E 023°35'0 0.0
2017-Oct-13 17:28N 37°57' E 023°35'0 0.0
2017-Oct-13 16:58N 37°57' E 023°35'0 0.0
2017-Oct-13 16:28N 37°57' E 023°35'0 0.0
2017-Oct-13 15:58N 37°57' E 023°35'0 0.0
2017-Oct-13 15:28N 37°57' E 023°35'0 0.0
2017-Oct-13 14:58N 37°57' E 023°35'0 0.0
2017-Oct-13 14:28N 37°57' E 023°35'0 0.0
2017-Oct-13 13:58N 37°57' E 023°35'0 0.0
2017-Oct-13 13:28N 37°57' E 023°35'0 0.0
2017-Oct-13 12:58N 37°57' E 023°35'0 0.0
2017-Oct-13 12:28N 37°57' E 023°35'0 0.2
2017-Oct-13 12:00N 37°57' E 023°35'2 4.3
2017-Oct-13 11:30N 37°55' E 023°35'1 2.8
2017-Oct-13 11:00N 37°54' E 023°36'3 5.6
2017-Oct-13 10:30N 37°52' E 023°38'714.0
2017-Oct-13 10:01N 37°45' E 023°42'816.4
2017-Oct-13 09:30N 37°38' E 023°48'916.9
2017-Oct-13 08:59N 37°36' E 023°59'816.8
2017-Oct-13 08:30N 37°37' E 024°08'917.3
2017-Oct-13 07:58N 37°43' E 024°18'817.8
2017-Oct-13 07:30N 37°48' E 024°26'3617.5
2017-Oct-13 05:27N 38°22' E 024°42'7516.0
2017-Oct-13 00:47N 39°34' E 024°18'517.0
2017-Oct-13 00:28N 39°36' E 024°12'817.0
2017-Oct-13 00:00N 39°39' E 024°02'1716.9
2017-Oct-12 22:59N 39°46' E 023°42'1116.5
2017-Oct-12 22:21N 39°50' E 023°29'1317.1
2017-Oct-12 21:35N 39°55' E 023°14'517.3
2017-Oct-12 21:16N 39°58' E 023°07'6 0.1
2017-Oct-10 19:26N 40°03' E 023°09'3517.4
2017-Oct-10 17:24N 39°44' E 023°48'718.0
2017-Oct-10 17:00N 39°43' E 023°57'918.3
2017-Oct-10 16:31N 39°43' E 024°09'2118.2
2017-Oct-10 15:20N 39°43' E 024°37'617.8
2017-Oct-10 15:00N 39°43' E 024°44'1817.8
2017-Oct-10 13:59N 39°43' E 025°08'1817.7
2017-Oct-10 12:59N 39°46' E 025°31'16313.6
2017-Oct-10 01:01N 40°26' E 028°58'012.1
2017-Oct-10 00:59N 40°26' E 028°58'510.5
2017-Oct-10 00:31N 40°25' E 029°05'0 0.0
2017-Oct-09 11:06N 40°25' E 029°05'0 3.4
2017-Oct-09 11:00N 40°25' E 029°05'1 0.9
2017-Oct-09 09:52N 40°26' E 029°03'3610.2
2017-Oct-09 06:18N 40°58' E 028°41'0 0.0
2017-Oct-09 05:54N 40°58' E 028°41'0 0.0
2017-Oct-09 05:18N 40°58' E 028°41'0 0.0
2017-Oct-09 05:00N 40°58' E 028°41'0 0.0
2017-Oct-09 01:48N 40°58' E 028°41'0 0.0
2017-Oct-09 00:00N 40°58' E 028°41'0 0.0
2017-Oct-08 19:24N 40°58' E 028°41'0 0.0
2017-Oct-08 18:12N 40°58' E 028°41'0 0.0
2017-Oct-08 17:54N 40°58' E 028°41'0 0.0
2017-Oct-08 17:18N 40°58' E 028°41'0 0.0
2017-Oct-08 16:24N 40°58' E 028°41'0 0.0
2017-Oct-08 15:54N 40°58' E 028°41'0 0.0
2017-Oct-08 14:36N 40°58' E 028°41'0 0.0
2017-Oct-08 14:30N 40°58' E 028°41'  

Dump ship's entire track history